createdAt,value
2022-09-09T00:00:50.568Z,54.10
2022-09-09T00:03:26.246Z,76.43
2022-09-09T00:05:52.768Z,66.03
2022-09-09T00:08:26.443Z,108.27
2022-09-09T00:11:00.079Z,58.30
2022-09-09T00:13:34.377Z,56.53
2022-09-09T00:16:10.865Z,50.97
2022-09-09T00:18:59.643Z,65.37
2022-09-09T00:21:37.970Z,71.43
2022-09-09T00:24:31.060Z,69.87
2022-09-09T00:27:02.482Z,79.50
2022-09-09T00:29:36.562Z,86.17
2022-09-09T00:32:19.764Z,54.23
2022-09-09T00:35:19.021Z,100.73
2022-09-09T00:37:48.296Z,87.83
2022-09-09T00:40:24.906Z,100.47
2022-09-09T00:43:01.969Z,65.13
2022-09-09T00:45:48.170Z,198.63
2022-09-09T00:48:14.670Z,131.93
2022-09-09T00:51:08.414Z,117.13
2022-09-09T00:53:52.866Z,62.43
2022-09-09T00:56:22.714Z,55.07
2022-09-09T00:59:20.975Z,69.70
2022-09-09T01:01:47.644Z,122.03
2022-09-09T01:04:21.441Z,77.67
2022-09-09T01:06:53.233Z,93.77
2022-09-09T01:09:56.749Z,73.57
2022-09-09T01:12:35.678Z,81.13
2022-09-09T01:15:12.891Z,108.70
2022-09-09T01:17:50.193Z,82.60
2022-09-09T01:20:27.368Z,86.43
2022-09-09T01:23:15.766Z,73.80
2022-09-09T01:25:45.209Z,70.17
2022-09-09T01:28:15.221Z,67.27
2022-09-09T01:30:43.100Z,146.03
2022-09-09T01:33:15.056Z,115.63
2022-09-09T01:35:48.169Z,84.43
2022-09-09T01:38:15.662Z,105.07
2022-09-09T01:40:42.164Z,86.07
2022-09-09T01:43:08.740Z,115.23
2022-09-09T01:45:35.548Z,109.60
2022-09-09T01:48:03.840Z,117.00
2022-09-09T01:50:30.503Z,79.60
2022-09-09T01:52:59.234Z,86.07
2022-09-09T01:55:36.846Z,114.97
2022-09-09T01:58:06.316Z,107.67
2022-09-09T02:00:33.577Z,75.93
2022-09-09T02:03:12.395Z,100.53
2022-09-09T02:05:59.068Z,84.20
2022-09-09T02:08:30.245Z,84.17
2022-09-09T02:11:02.963Z,96.13
2022-09-09T02:13:30.372Z,101.23
2022-09-09T02:16:01.244Z,149.10
2022-09-09T02:18:42.224Z,165.63
2022-09-09T02:21:08.964Z,145.00
2022-09-09T02:23:36.229Z,176.80
2022-09-09T02:26:05.113Z,128.17
2022-09-09T02:28:33.317Z,141.20
2022-09-09T02:31:00.343Z,123.97
2022-09-09T02:33:30.076Z,109.27
2022-09-09T02:36:02.784Z,165.13
2022-09-09T02:38:32.691Z,92.17
2022-09-09T02:40:59.669Z,132.87
2022-09-09T02:43:26.141Z,127.37
2022-09-09T02:46:15.444Z,98.67
2022-09-09T02:48:57.069Z,165.33
2022-09-09T02:51:44.437Z,106.77
2022-09-09T02:54:32.148Z,156.60
2022-09-09T02:57:06.337Z,166.03
2022-09-09T02:59:33.188Z,129.53
2022-09-09T03:01:59.772Z,138.43
2022-09-09T03:04:26.361Z,189.37
2022-09-09T03:06:52.853Z,152.90
2022-09-09T03:09:19.326Z,100.43
2022-09-09T03:11:45.910Z,163.47
2022-09-09T03:14:12.404Z,99.37
2022-09-09T03:16:38.969Z,75.70
2022-09-09T03:19:05.501Z,102.50
2022-09-09T03:21:31.998Z,94.43
2022-09-09T03:23:58.469Z,124.20
2022-09-09T03:26:25.529Z,101.40
2022-09-09T03:28:52.724Z,83.33
2022-09-09T03:31:20.809Z,113.97
2022-09-09T03:33:47.504Z,81.67
2022-09-09T03:36:14.062Z,134.50
2022-09-09T03:38:40.966Z,82.27
2022-09-09T03:41:08.846Z,75.43
2022-09-09T03:43:35.666Z,119.73
2022-09-09T03:46:02.186Z,113.00
2022-09-09T03:48:29.289Z,88.67
2022-09-09T03:51:01.756Z,74.80
2022-09-09T03:53:32.207Z,108.53
2022-09-09T03:56:01.071Z,86.80
2022-09-09T03:58:28.626Z,98.23
2022-09-09T04:00:56.083Z,183.57
2022-09-09T04:03:28.027Z,80.20
2022-09-09T04:05:56.434Z,104.27
2022-09-09T04:08:23.247Z,75.07
2022-09-09T04:10:50.709Z,100.50
2022-09-09T04:13:18.790Z,89.80
2022-09-09T04:15:51.293Z,106.93
2022-09-09T04:18:20.023Z,82.07
2022-09-09T04:20:51.761Z,120.33
2022-09-09T04:23:20.070Z,111.53
2022-09-09T04:25:48.066Z,70.97
2022-09-09T04:28:16.063Z,70.97
2022-09-09T04:30:43.144Z,70.10
2022-09-09T04:33:10.882Z,88.33
2022-09-09T04:35:37.868Z,100.57
2022-09-09T04:38:05.326Z,88.57
2022-09-09T04:40:32.550Z,88.07
2022-09-09T04:42:59.744Z,85.70
2022-09-09T04:45:27.301Z,82.27
2022-09-09T04:47:54.313Z,84.83
2022-09-09T04:50:20.856Z,139.37
2022-09-09T04:52:47.457Z,98.00
2022-09-09T04:55:14.076Z,120.70
2022-09-09T04:57:41.083Z,123.60
2022-09-09T05:00:08.351Z,95.73
2022-09-09T05:02:39.462Z,129.30
2022-09-09T05:05:06.840Z,106.40
2022-09-09T05:07:33.340Z,98.97
2022-09-09T05:09:59.910Z,114.27
2022-09-09T05:12:26.841Z,88.67
2022-09-09T05:14:53.715Z,71.23
2022-09-09T05:17:20.204Z,99.80
2022-09-09T05:19:46.662Z,151.90
2022-09-09T05:22:13.158Z,92.40
2022-09-09T05:24:39.861Z,102.23
2022-09-09T05:27:07.153Z,86.70
2022-09-09T05:29:37.065Z,87.53
2022-09-09T05:32:04.273Z,128.03
2022-09-09T05:34:30.714Z,113.40
2022-09-09T05:36:57.171Z,101.23
2022-09-09T05:39:23.656Z,98.20
2022-09-09T05:41:50.115Z,91.70
2022-09-09T05:44:16.678Z,92.27
2022-09-09T05:46:43.192Z,96.90
2022-09-09T05:49:09.698Z,89.87
2022-09-09T05:51:36.258Z,79.23
2022-09-09T05:54:02.754Z,82.20
2022-09-09T05:56:30.498Z,86.23
2022-09-09T05:58:57.545Z,79.87
2022-09-09T06:01:27.525Z,72.80
2022-09-09T06:03:54.392Z,66.67
2022-09-09T06:06:23.087Z,75.20
2022-09-09T06:08:52.494Z,69.97
2022-09-09T06:11:25.162Z,85.20
2022-09-09T06:13:54.709Z,65.17
2022-09-09T06:16:27.482Z,56.70
2022-09-09T06:18:57.884Z,59.37
2022-09-09T06:21:30.279Z,61.70
2022-09-09T06:24:00.846Z,51.70
2022-09-09T06:26:33.614Z,62.43
2022-09-09T06:29:00.957Z,55.93
2022-09-09T06:31:31.530Z,52.40
2022-09-09T06:33:59.664Z,49.47
2022-09-09T06:36:28.795Z,52.07
2022-09-09T06:38:55.317Z,43.33
2022-09-09T06:41:25.104Z,42.37
2022-09-09T06:43:51.568Z,41.47
2022-09-09T06:46:23.309Z,45.57
2022-09-09T06:48:50.112Z,47.17
2022-09-09T06:51:19.192Z,43.73
2022-09-09T06:53:46.866Z,44.00
2022-09-09T06:56:32.743Z,44.80
2022-09-09T06:59:04.819Z,37.80
2022-09-09T07:01:33.781Z,35.40
2022-09-09T07:04:01.645Z,39.33
2022-09-09T07:06:32.863Z,36.33
2022-09-09T07:09:01.706Z,32.70
2022-09-09T07:11:31.108Z,31.23
2022-09-09T07:14:01.737Z,29.93
2022-09-09T07:16:28.776Z,28.73
2022-09-09T07:18:58.902Z,28.73
2022-09-09T07:21:27.546Z,26.60
2022-09-09T07:23:55.514Z,28.37
2022-09-09T07:26:25.282Z,27.00
2022-09-09T07:28:51.936Z,24.07
2022-09-09T07:31:21.633Z,23.70
2022-09-09T07:33:49.300Z,24.37
2022-09-09T07:36:22.726Z,22.87
2022-09-09T07:38:54.985Z,21.90
2022-09-09T07:41:35.162Z,23.33
2022-09-09T07:44:09.710Z,21.23
2022-09-09T07:46:36.799Z,22.83
2022-09-09T07:49:04.709Z,22.30
2022-09-09T07:51:34.200Z,22.40
2022-09-09T07:54:03.322Z,21.53
2022-09-09T07:56:33.558Z,22.07
2022-09-09T07:59:00.414Z,22.70
2022-09-09T08:01:33.121Z,22.37
2022-09-09T08:04:02.287Z,23.00
2022-09-09T08:06:31.241Z,20.07
2022-09-09T08:08:57.734Z,23.20
2022-09-09T08:11:26.845Z,21.10
2022-09-09T08:13:56.108Z,20.43
2022-09-09T08:16:27.684Z,18.67
2022-09-09T08:18:55.128Z,19.67
2022-09-09T08:21:24.305Z,17.60
2022-09-09T08:23:57.656Z,16.43
2022-09-09T08:26:26.589Z,16.23
2022-09-09T08:28:55.133Z,18.20
2022-09-09T08:31:27.520Z,15.10
2022-09-09T08:33:53.978Z,15.00
2022-09-09T08:36:22.678Z,14.33
2022-09-09T08:38:55.443Z,13.40
2022-09-09T08:42:04.020Z,14.83
2022-09-09T08:45:09.724Z,14.77
2022-09-09T08:47:41.924Z,12.27
2022-09-09T08:50:25.790Z,12.97
2022-09-09T08:53:02.540Z,11.87
2022-09-09T08:55:55.738Z,9.50
2022-09-09T08:58:25.848Z,10.87
2022-09-09T09:01:01.350Z,8.70
2022-09-09T09:03:40.397Z,7.87
2022-09-09T09:06:25.130Z,7.57
2022-09-09T09:09:19.099Z,6.73
2022-09-09T09:11:49.723Z,10.17
2022-09-09T09:14:24.294Z,7.47
2022-09-09T09:16:58.112Z,6.27
2022-09-09T09:19:27.105Z,6.67
2022-09-09T09:22:12.420Z,5.57
2022-09-09T09:25:03.396Z,7.23
2022-09-09T09:27:34.569Z,7.30
2022-09-09T09:30:26.883Z,4.67
2022-09-09T09:33:14.536Z,5.27
2022-09-09T09:35:43.241Z,5.33
2022-09-09T09:41:07.674Z,4.67
2022-09-09T09:43:35.870Z,4.90
2022-09-09T09:46:17.530Z,6.47
2022-09-09T09:48:44.417Z,5.17
2022-09-09T09:51:14.899Z,4.03
2022-09-09T09:53:41.407Z,4.40
2022-09-09T09:56:13.046Z,6.10
2022-09-09T09:58:45.499Z,7.97
2022-09-09T10:01:28.988Z,2.77
2022-09-09T10:03:59.137Z,3.17
2022-09-09T10:06:34.113Z,5.20
2022-09-09T10:09:02.721Z,2.50
2022-09-09T10:11:34.365Z,3.53
2022-09-09T10:14:10.459Z,5.93
2022-09-09T10:17:04.288Z,3.93
2022-09-09T10:19:38.399Z,3.30
2022-09-09T10:22:21.057Z,2.93
2022-09-09T10:25:03.164Z,3.90
2022-09-09T10:27:41.870Z,1.90
2022-09-09T10:30:21.049Z,2.10
2022-09-09T10:33:14.575Z,3.13
2022-09-09T10:36:03.970Z,2.77
2022-09-09T10:38:54.829Z,3.83
2022-09-09T10:42:03.355Z,1.93
2022-09-09T10:45:00.295Z,3.97
2022-09-09T10:48:04.355Z,2.17
2022-09-09T10:51:04.614Z,4.13
2022-09-09T10:54:04.113Z,2.73
2022-09-09T10:56:31.399Z,3.00
2022-09-09T10:59:00.753Z,2.53
2022-09-09T11:01:32.734Z,1.73
2022-09-09T11:04:03.260Z,2.90
2022-09-09T11:06:35.815Z,1.80
2022-09-09T11:09:03.568Z,4.83
2022-09-09T11:11:38.126Z,2.13
2022-09-09T11:14:32.839Z,2.07
2022-09-09T11:17:04.917Z,2.10
2022-09-09T11:19:41.217Z,4.27
2022-09-09T11:22:22.675Z,2.27
2022-09-09T11:24:53.357Z,3.37
2022-09-09T11:27:27.397Z,3.67
2022-09-09T11:30:02.809Z,1.73
2022-09-09T11:32:48.953Z,1.93
2022-09-09T11:35:44.097Z,2.73
2022-09-09T11:38:20.617Z,2.63
2022-09-09T11:40:47.602Z,2.10
2022-09-09T11:43:25.608Z,2.57
2022-09-09T11:46:01.108Z,4.00
2022-09-09T11:48:36.416Z,2.47
2022-09-09T11:51:16.718Z,3.13
2022-09-09T11:53:52.052Z,2.80
2022-09-09T11:56:27.405Z,2.43
2022-09-09T11:59:03.073Z,3.27
2022-09-09T12:01:37.513Z,2.93
2022-09-09T12:04:10.051Z,3.90
2022-09-09T12:06:48.123Z,3.17
2022-09-09T12:09:32.907Z,2.87
2022-09-09T12:12:12.563Z,4.13
2022-09-09T12:14:56.849Z,2.77
2022-09-09T12:17:25.850Z,2.83
2022-09-09T12:20:18.380Z,3.07
2022-09-09T12:22:57.805Z,3.80
2022-09-09T12:25:54.621Z,3.30
2022-09-09T12:28:26.867Z,3.33
2022-09-09T12:31:00.156Z,2.67
2022-09-09T12:33:38.490Z,7.87
2022-09-09T12:36:07.358Z,2.53
2022-09-09T12:38:41.731Z,2.67
2022-09-09T12:41:20.662Z,2.50
2022-09-09T12:43:47.125Z,1.90
2022-09-09T12:46:22.749Z,3.40
2022-09-09T12:48:49.320Z,2.43
2022-09-09T12:51:22.478Z,4.27
2022-09-09T12:53:49.069Z,2.93
2022-09-09T12:56:34.165Z,2.77
2022-09-09T12:59:01.872Z,1.57
2022-09-09T13:01:30.878Z,3.60
2022-09-09T13:03:58.052Z,2.07
2022-09-09T13:06:28.876Z,3.70
2022-09-09T13:08:58.109Z,1.53
2022-09-09T13:11:40.593Z,2.57
2022-09-09T13:14:07.555Z,2.43
2022-09-09T13:16:40.440Z,2.47
2022-09-09T13:19:14.129Z,2.63
2022-09-09T13:21:40.804Z,2.00
2022-09-09T13:24:23.514Z,2.43
2022-09-09T13:27:04.522Z,2.33
2022-09-09T13:29:32.404Z,1.93
2022-09-09T13:32:17.351Z,4.20
2022-09-09T13:34:55.943Z,2.03
2022-09-09T13:37:31.414Z,2.33
2022-09-09T13:39:58.541Z,2.67
2022-09-09T13:42:30.589Z,3.03
2022-09-09T13:44:57.690Z,2.70
2022-09-09T13:47:35.954Z,2.13
2022-09-09T13:50:31.011Z,4.60
2022-09-09T13:52:59.592Z,3.77
2022-09-09T13:55:28.233Z,3.00
2022-09-09T13:57:59.932Z,2.30
2022-09-09T14:00:26.389Z,2.70
2022-09-09T14:02:53.466Z,4.33
2022-09-09T14:05:20.468Z,2.53
2022-09-09T14:07:50.169Z,3.17
2022-09-09T14:10:19.161Z,3.60
2022-09-09T14:12:45.630Z,3.23
2022-09-09T14:15:13.356Z,3.00
2022-09-09T14:17:39.958Z,3.00
2022-09-09T14:20:08.698Z,2.37
2022-09-09T14:22:35.650Z,2.63
2022-09-09T14:25:02.433Z,4.40
2022-09-09T14:27:29.549Z,2.20
2022-09-09T14:29:56.164Z,3.60
2022-09-09T14:32:23.003Z,2.13
2022-09-09T14:34:52.347Z,4.37
2022-09-09T14:37:19.477Z,3.50
2022-09-09T14:39:47.962Z,3.57
2022-09-09T14:42:15.061Z,2.70
2022-09-09T14:44:41.756Z,7.37
2022-09-09T14:47:11.555Z,4.70
2022-09-09T14:49:39.817Z,3.73
2022-09-09T14:52:10.394Z,3.40
2022-09-09T14:54:36.885Z,2.33
2022-09-09T14:57:03.388Z,3.27
2022-09-09T14:59:29.846Z,1.90
2022-09-09T15:01:56.315Z,1.73
2022-09-09T15:04:23.009Z,2.23
2022-09-09T15:06:50.906Z,2.47
2022-09-09T15:09:17.535Z,1.30
2022-09-09T15:11:45.286Z,1.30
2022-09-09T15:14:13.058Z,1.53
2022-09-09T15:16:40.702Z,1.20
2022-09-09T15:19:07.362Z,3.10
2022-09-09T15:21:36.514Z,1.43
2022-09-09T15:24:03.061Z,1.17
2022-09-09T15:26:30.922Z,2.10
2022-09-09T15:29:00.418Z,1.80
2022-09-09T15:31:31.477Z,4.50
2022-09-09T15:34:02.828Z,2.67
2022-09-09T15:36:38.216Z,3.57
2022-09-09T15:39:07.136Z,2.70
2022-09-09T15:41:33.689Z,2.40
2022-09-09T15:44:01.511Z,2.20
2022-09-09T15:46:31.286Z,2.23
2022-09-09T15:49:00.201Z,5.27
2022-09-09T15:51:43.937Z,5.30
2022-09-09T15:54:13.292Z,4.50
2022-09-09T15:56:40.533Z,5.37
2022-09-09T15:59:07.124Z,3.73
2022-09-09T16:01:34.458Z,3.33
2022-09-09T16:04:01.222Z,4.63
2022-09-09T16:06:29.402Z,5.10
2022-09-09T16:08:57.602Z,5.40
2022-09-09T16:11:28.814Z,4.03
2022-09-09T16:13:56.552Z,5.50
2022-09-09T16:16:25.408Z,4.10
2022-09-09T16:18:55.271Z,3.23
2022-09-09T16:21:33.277Z,5.07
2022-09-09T16:24:01.413Z,4.10
2022-09-09T16:26:29.326Z,2.60
2022-09-09T16:28:55.871Z,5.07
2022-09-09T16:31:24.260Z,6.53
2022-09-09T16:33:51.581Z,4.00
2022-09-09T16:36:21.232Z,4.57
2022-09-09T16:38:47.790Z,5.07
2022-09-09T16:41:15.485Z,3.03
2022-09-09T16:43:42.261Z,4.80
2022-09-09T16:46:19.472Z,5.50
2022-09-09T16:48:47.041Z,4.10
2022-09-09T16:51:19.065Z,5.40
2022-09-09T16:53:46.191Z,5.73
2022-09-09T16:56:26.003Z,5.23
2022-09-09T16:58:56.608Z,7.40
2022-09-09T17:01:28.397Z,3.90
2022-09-09T17:04:01.358Z,5.67
2022-09-09T17:06:30.092Z,5.70
2022-09-09T17:09:05.079Z,7.73
2022-09-09T17:11:31.602Z,6.30
2022-09-09T17:14:01.905Z,6.50
2022-09-09T17:16:31.156Z,7.73
2022-09-09T17:18:59.527Z,6.00
2022-09-09T17:21:27.235Z,9.10
2022-09-09T17:23:53.998Z,5.67
2022-09-09T17:26:22.445Z,6.07
2022-09-09T17:28:48.936Z,4.77
2022-09-09T17:31:18.191Z,4.67
2022-09-09T17:33:47.105Z,4.67
2022-09-09T17:36:19.269Z,5.67
2022-09-09T17:38:46.454Z,6.40
2022-09-09T17:41:14.698Z,4.07
2022-09-09T17:43:41.479Z,4.37
2022-09-09T17:46:16.775Z,4.87
2022-09-09T17:48:45.551Z,7.07
2022-09-09T17:51:19.842Z,4.67
2022-09-09T17:53:48.260Z,5.10
2022-09-09T17:56:17.277Z,4.53
2022-09-09T17:58:45.332Z,5.23
2022-09-09T18:01:39.593Z,6.50
2022-09-09T18:04:08.097Z,7.63
2022-09-09T18:06:39.902Z,5.40
2022-09-09T18:09:09.645Z,5.83
2022-09-09T18:11:42.507Z,7.73
2022-09-09T18:14:10.722Z,6.20
2022-09-09T18:16:37.836Z,6.37
2022-09-09T18:19:06.394Z,6.57
2022-09-09T18:21:33.958Z,6.77
2022-09-09T18:24:05.307Z,5.73
2022-09-09T18:26:33.748Z,6.53
2022-09-09T18:29:03.740Z,6.40
2022-09-09T18:31:30.693Z,6.20
2022-09-09T18:33:59.496Z,5.73
2022-09-09T18:36:32.623Z,5.53
2022-09-09T18:39:00.602Z,5.30
2022-09-09T18:41:33.319Z,5.53
2022-09-09T18:44:02.395Z,6.17
2022-09-09T18:46:30.955Z,5.97
2022-09-09T18:48:57.806Z,5.90
2022-09-09T18:51:26.975Z,5.77
2022-09-09T18:53:58.746Z,7.93
2022-09-09T18:56:25.234Z,5.83
2022-09-09T18:58:56.352Z,7.30
2022-09-09T19:01:23.946Z,11.77
2022-09-09T19:03:51.335Z,11.53
2022-09-09T19:06:19.978Z,13.83
2022-09-09T19:08:47.070Z,10.70
2022-09-09T19:11:16.576Z,10.80
2022-09-09T19:13:43.760Z,8.67
2022-09-09T19:16:13.718Z,9.73
2022-09-09T19:18:41.259Z,7.37
2022-09-09T19:21:11.636Z,9.57
2022-09-09T19:23:39.077Z,11.23
2022-09-09T19:26:06.456Z,7.53
2022-09-09T19:28:36.141Z,9.17
2022-09-09T19:31:07.623Z,8.97
2022-09-09T19:33:34.178Z,13.63
2022-09-09T19:36:02.450Z,11.20
2022-09-09T19:38:30.418Z,11.70
2022-09-09T19:40:57.130Z,10.90
2022-09-09T19:43:24.756Z,13.33
2022-09-09T19:45:58.914Z,12.37
2022-09-09T19:48:26.996Z,12.10
2022-09-09T19:50:54.910Z,11.43
2022-09-09T19:53:21.790Z,11.77
2022-09-09T19:55:51.524Z,10.93
2022-09-09T19:58:18.489Z,9.90
2022-09-09T20:00:45.668Z,11.33
2022-09-09T20:03:19.153Z,12.77
2022-09-09T20:05:49.313Z,12.37
2022-09-09T20:08:15.861Z,14.30
2022-09-09T20:10:51.461Z,14.10
2022-09-09T20:13:18.240Z,13.57
2022-09-09T20:15:44.783Z,9.10
2022-09-09T20:18:11.286Z,8.20
2022-09-09T20:20:42.718Z,7.87
2022-09-09T20:23:09.340Z,8.13
2022-09-09T20:25:37.538Z,8.93
2022-09-09T20:28:04.129Z,9.50
2022-09-09T20:30:31.127Z,7.63
2022-09-09T20:32:57.590Z,7.90
2022-09-09T20:35:24.577Z,8.03
2022-09-09T20:37:51.017Z,7.70
2022-09-09T20:40:17.453Z,12.97
2022-09-09T20:42:43.898Z,9.97
2022-09-09T20:45:16.127Z,11.27
2022-09-09T20:47:42.594Z,9.13
2022-09-09T20:50:10.544Z,9.43
2022-09-09T20:52:37.447Z,8.43
2022-09-09T20:55:04.643Z,7.60
2022-09-09T20:57:31.164Z,6.50
2022-09-09T20:59:57.584Z,5.60
2022-09-09T21:02:24.185Z,9.23
2022-09-09T21:04:50.640Z,6.80
2022-09-09T21:07:17.116Z,6.20
2022-09-09T21:09:43.826Z,6.07
2022-09-09T21:12:10.449Z,6.03
2022-09-09T21:14:36.957Z,6.10
2022-09-09T21:17:03.513Z,5.53
2022-09-09T21:19:30.155Z,7.00
2022-09-09T21:21:57.101Z,5.47
2022-09-09T21:24:23.603Z,6.20
2022-09-09T21:26:50.087Z,6.90
2022-09-09T21:29:16.548Z,9.67
2022-09-09T21:31:43.548Z,8.50
2022-09-09T21:34:10.171Z,7.63
2022-09-09T21:36:36.625Z,5.70
2022-09-09T21:39:03.108Z,7.53
2022-09-09T21:41:29.580Z,8.83
2022-09-09T21:43:56.719Z,11.50
2022-09-09T21:46:23.908Z,9.27
2022-09-09T21:48:50.780Z,6.13
2022-09-09T21:51:17.567Z,6.83
2022-09-09T21:53:44.410Z,11.33
2022-09-09T21:56:14.484Z,7.73
2022-09-09T21:58:41.785Z,7.90
2022-09-09T22:01:13.202Z,6.63
2022-09-09T22:03:39.841Z,6.97
2022-09-09T22:06:08.516Z,6.90
2022-09-09T22:08:36.112Z,8.37
2022-09-09T22:11:07.969Z,8.03
2022-09-09T22:13:35.798Z,6.67
2022-09-09T22:16:04.265Z,6.70
2022-09-09T22:18:32.134Z,7.53
2022-09-09T22:21:01.893Z,8.63
2022-09-09T22:23:30.970Z,8.03
2022-09-09T22:25:57.420Z,7.27
2022-09-09T22:28:23.875Z,9.47
2022-09-09T22:30:50.366Z,7.70
2022-09-09T22:33:16.871Z,7.20
2022-09-09T22:35:43.852Z,6.87
2022-09-09T22:38:10.989Z,8.37
2022-09-09T22:40:41.422Z,10.93
2022-09-09T22:43:14.493Z,8.30
2022-09-09T22:45:42.021Z,7.27
2022-09-09T22:48:08.501Z,8.90
2022-09-09T22:50:38.929Z,10.47
2022-09-09T22:53:08.616Z,15.63
2022-09-09T22:55:35.135Z,15.33
2022-09-09T22:58:01.709Z,12.70
2022-09-09T23:00:29.152Z,13.17
2022-09-09T23:02:56.189Z,10.43
2022-09-09T23:05:27.523Z,13.60
2022-09-09T23:07:58.380Z,10.00
2022-09-09T23:10:25.259Z,8.13
2022-09-09T23:12:52.431Z,10.73
2022-09-09T23:15:19.835Z,9.53
2022-09-09T23:17:46.481Z,11.63
2022-09-09T23:20:12.997Z,8.67
2022-09-09T23:22:40.556Z,13.90
2022-09-09T23:25:07.738Z,12.17
2022-09-09T23:27:34.793Z,12.17
2022-09-09T23:30:01.585Z,13.73
2022-09-09T23:32:28.136Z,13.50
2022-09-09T23:34:54.829Z,10.77
2022-09-09T23:37:21.305Z,14.60
2022-09-09T23:39:48.491Z,13.57
2022-09-09T23:42:15.249Z,11.10
2022-09-09T23:44:42.142Z,9.47
2022-09-09T23:47:09.413Z,10.47
2022-09-09T23:49:39.513Z,10.00
2022-09-09T23:52:06.723Z,12.97
2022-09-09T23:54:34.889Z,13.57
2022-09-09T23:57:05.569Z,12.20
2022-09-09T23:59:32.092Z,11.97
